createdAt,value
2023-04-13T00:04:15.483Z,98936.16
2023-04-13T00:09:20.323Z,98931.81
2023-04-13T00:14:27.642Z,98921.47
2023-04-13T00:19:31.058Z,98923.19
2023-04-13T00:24:37.173Z,98912.81
2023-04-13T00:29:40.917Z,98930.94
2023-04-13T00:34:44.387Z,98931.81
2023-04-13T00:39:49.381Z,98930.91
2023-04-13T00:44:52.886Z,98930.06
2023-04-13T00:49:57.070Z,98939.56
2023-04-13T00:55:04.075Z,98930.94
2023-04-13T01:00:10.211Z,98934.41
2023-04-13T01:05:16.474Z,98935.25
2023-04-13T01:10:27.975Z,98932.66
2023-04-13T01:15:37.268Z,98942.16
2023-04-13T01:20:45.708Z,98940.44
2023-04-13T01:25:56.644Z,98903.34
2023-04-13T01:31:05.358Z,98945.59
2023-04-13T01:36:11.538Z,98943.00
2023-04-13T01:41:15.686Z,98944.75
2023-04-13T01:46:23.854Z,98943.84
2023-04-13T01:51:30.702Z,98944.75
2023-04-13T01:56:34.707Z,98951.59
2023-04-13T02:01:40.806Z,98914.53
2023-04-13T02:06:44.348Z,98952.50
2023-04-13T02:11:48.130Z,98955.09
2023-04-13T02:16:53.058Z,98947.34
2023-04-13T02:21:56.201Z,98946.50
2023-04-13T02:26:59.697Z,98947.34
2023-04-13T02:32:04.748Z,98955.09
2023-04-13T02:37:09.553Z,98951.66
2023-04-13T02:42:13.012Z,98957.66
2023-04-13T02:47:18.104Z,98960.25
2023-04-13T02:52:22.104Z,98964.53
2023-04-13T02:57:25.582Z,98977.44
2023-04-13T03:02:31.342Z,98961.09
2023-04-13T03:07:36.433Z,98955.94
2023-04-13T03:12:39.876Z,98968.09
2023-04-13T03:17:44.828Z,98965.50
2023-04-13T03:22:48.334Z,98972.44
2023-04-13T03:27:53.474Z,98972.41
2023-04-13T03:32:58.326Z,98971.53
2023-04-13T03:38:01.534Z,98971.50
2023-04-13T03:43:04.957Z,98971.47
2023-04-13T03:48:11.085Z,98972.25
2023-04-13T03:53:14.498Z,98966.84
2023-04-13T03:58:18.337Z,98961.47
2023-04-13T04:03:25.608Z,98966.19
2023-04-13T04:08:29.376Z,98979.03
2023-04-13T04:13:32.905Z,98974.09
2023-04-13T04:18:37.758Z,98974.13
2023-04-13T04:23:41.236Z,98968.28
2023-04-13T04:28:44.690Z,98974.06
2023-04-13T04:33:51.900Z,98976.66
2023-04-13T04:38:58.188Z,98978.22
2023-04-13T04:44:02.967Z,98986.16
2023-04-13T04:49:07.848Z,98981.38
2023-04-13T04:54:11.626Z,98979.13
2023-04-13T04:59:15.375Z,98988.28
2023-04-13T05:04:20.262Z,98989.00
2023-04-13T05:09:23.857Z,98981.25
2023-04-13T05:14:27.449Z,98973.91
2023-04-13T05:19:35.450Z,98974.63
2023-04-13T05:24:40.454Z,98969.75
2023-04-13T05:29:46.282Z,98975.81
2023-04-13T05:34:52.791Z,98962.53
2023-04-13T05:39:56.620Z,98942.47
2023-04-13T05:45:00.321Z,98956.06
2023-04-13T05:50:05.504Z,98943.78
2023-04-13T05:55:09.488Z,98941.91
2023-04-13T06:00:14.252Z,98947.47
2023-04-13T06:05:19.911Z,98959.81
2023-04-13T06:10:23.596Z,98931.09
2023-04-13T06:15:27.536Z,98956.31
2023-04-13T06:20:33.694Z,98946.78
2023-04-13T06:25:38.723Z,98941.28
2023-04-13T06:30:42.358Z,98945.56
2023-04-13T06:35:47.445Z,98934.13
2023-04-13T06:40:51.181Z,98927.44
2023-04-13T06:46:00.294Z,98938.00
2023-04-13T06:51:05.626Z,98945.41
2023-04-13T06:56:10.085Z,98949.16
2023-04-13T07:01:13.781Z,98947.56
2023-04-13T07:06:18.967Z,98957.31
2023-04-13T07:11:22.500Z,98955.84
2023-04-13T07:16:26.338Z,98959.94
2023-04-13T07:21:33.937Z,98967.72
2023-04-13T07:26:37.400Z,98978.66
2023-04-13T07:31:41.159Z,98985.81
2023-04-13T07:36:47.163Z,98973.28
2023-04-13T07:41:50.882Z,98968.88
2023-04-13T07:46:55.934Z,98966.81
2023-04-13T07:52:01.469Z,98954.63
2023-04-13T07:57:05.122Z,98947.41
2023-04-13T08:02:08.819Z,98951.81
2023-04-13T08:07:14.014Z,98946.22
2023-04-13T08:12:17.980Z,98938.38
2023-04-13T08:17:21.914Z,98945.94
2023-04-13T08:22:27.238Z,98954.22
2023-04-13T08:27:30.720Z,98935.44
2023-04-13T08:32:34.529Z,98933.97
2023-04-13T08:37:39.967Z,98943.19
2023-04-13T08:42:43.661Z,98947.69
2023-04-13T08:47:46.913Z,98939.75
2023-04-13T08:52:51.852Z,98945.88
2023-04-13T08:57:59.371Z,98939.59
2023-04-13T09:03:09.570Z,98947.44
2023-04-13T09:08:17.383Z,98953.63
2023-04-13T09:13:21.222Z,98948.38
2023-04-13T09:18:24.980Z,98931.94
2023-04-13T09:23:29.875Z,98942.81
2023-04-13T09:28:33.402Z,98947.72
2023-04-13T09:33:46.387Z,98929.13
2023-04-13T09:38:55.322Z,98938.91
2023-04-13T09:43:59.390Z,98933.25
2023-04-13T09:49:05.056Z,98941.03
2023-04-13T09:54:10.057Z,98944.66
2023-04-13T09:59:14.568Z,98933.03
2023-04-13T10:04:18.763Z,98922.38
2023-04-13T10:09:26.703Z,98921.06
2023-04-13T10:14:39.340Z,98907.78
2023-04-13T10:19:47.190Z,98924.25
2023-04-13T10:24:53.762Z,98914.00
2023-04-13T10:29:57.754Z,98898.63
2023-04-13T10:35:11.877Z,98905.50
2023-04-13T10:40:17.244Z,98897.00
2023-04-13T10:45:24.131Z,98899.03
2023-04-13T10:50:28.679Z,98933.22
2023-04-13T10:55:34.270Z,98903.19
2023-04-13T11:00:46.196Z,98910.50
2023-04-13T11:05:58.497Z,98906.72
2023-04-13T11:11:03.415Z,98900.81
2023-04-13T11:16:07.728Z,98921.50
2023-04-13T11:21:16.453Z,98907.47
2023-04-13T11:26:33.003Z,98922.06
2023-04-13T11:31:39.157Z,98923.47
2023-04-13T11:36:46.020Z,98921.56
2023-04-13T11:41:51.064Z,98929.03
2023-04-13T11:46:56.614Z,98917.25
2023-04-13T11:52:01.312Z,98910.75
2023-04-13T11:57:06.420Z,98911.59
2023-04-13T12:02:20.814Z,98895.81
2023-04-13T12:07:26.964Z,98911.22
2023-04-13T12:12:51.560Z,98906.16
2023-04-13T12:18:02.362Z,98907.50
2023-04-13T12:23:22.784Z,98910.88
2023-04-13T12:28:34.136Z,98896.41
2023-04-13T12:33:38.629Z,98909.00
2023-04-13T12:38:42.744Z,98901.38
2023-04-13T12:43:47.601Z,98903.59
2023-04-13T12:48:51.558Z,98911.31
2023-04-13T12:53:54.967Z,98907.59
2023-04-13T12:59:00.852Z,98912.94
2023-04-13T13:04:05.764Z,98905.81
2023-04-13T13:09:09.652Z,98909.19
2023-04-13T13:14:14.651Z,98898.34
2023-04-13T13:19:18.238Z,98885.84
2023-04-13T13:24:21.799Z,98898.41
2023-04-13T13:29:33.232Z,98897.28
2023-04-13T13:34:36.879Z,98900.41
2023-04-13T13:39:41.232Z,98907.47
2023-04-13T13:44:46.461Z,98910.38
2023-04-13T13:49:50.110Z,98905.41
2023-04-13T13:54:54.754Z,98918.09
2023-04-13T14:00:00.329Z,98912.50
2023-04-13T14:05:04.393Z,98917.13
2023-04-13T14:10:09.321Z,98926.47
2023-04-13T14:15:15.081Z,98910.97
2023-04-13T14:20:18.752Z,98938.91
2023-04-13T14:25:22.428Z,98934.38
2023-04-13T14:30:28.302Z,98933.06
2023-04-13T14:35:32.187Z,98940.25
2023-04-13T14:40:36.138Z,98944.38
2023-04-13T14:45:41.192Z,98940.38
2023-04-13T14:50:44.661Z,98943.13
2023-04-13T14:55:48.249Z,98936.72
2023-04-13T15:00:53.594Z,98946.88
2023-04-13T15:06:03.502Z,98963.78
2023-04-13T15:11:08.578Z,98975.16
2023-04-13T15:16:13.754Z,98972.84
2023-04-13T15:21:17.404Z,98990.09
2023-04-13T15:26:21.853Z,98985.09
2023-04-13T15:31:27.220Z,98988.16
2023-04-13T15:36:30.723Z,99004.19
2023-04-13T15:41:34.146Z,98996.50
2023-04-13T15:46:40.447Z,99005.88
2023-04-13T15:51:43.970Z,98999.59
2023-04-13T15:56:47.588Z,99007.50
2023-04-13T16:01:52.741Z,99004.16
2023-04-13T16:07:12.109Z,99007.94
2023-04-13T16:12:17.727Z,99008.53
2023-04-13T16:17:31.021Z,99021.88
2023-04-13T16:22:36.456Z,99044.84
2023-04-13T16:27:41.703Z,99043.66
2023-04-13T16:32:47.613Z,99061.81
2023-04-13T16:37:51.253Z,99063.81
2023-04-13T16:42:54.702Z,99071.22
2023-04-13T16:47:59.736Z,99089.00
2023-04-13T16:53:03.434Z,99090.34
2023-04-13T16:58:07.647Z,99098.50
2023-04-13T17:03:12.681Z,99115.41
2023-04-13T17:08:17.057Z,99118.97
2023-04-13T17:13:20.604Z,99133.00
2023-04-13T17:18:25.973Z,99127.19
2023-04-13T17:23:29.573Z,99132.44
2023-04-13T17:28:33.273Z,99140.50
2023-04-13T17:33:38.126Z,99137.22
2023-04-13T17:38:41.368Z,99150.28
2023-04-13T17:43:44.867Z,99154.69
2023-04-13T17:48:49.776Z,99160.88
2023-04-13T17:53:53.042Z,99182.81
2023-04-13T17:58:56.600Z,99169.91
2023-04-13T18:04:01.948Z,99189.84
2023-04-13T18:09:05.724Z,99176.09
2023-04-13T18:14:10.784Z,99166.66
2023-04-13T18:19:15.846Z,99175.38
2023-04-13T18:24:19.443Z,99182.44
2023-04-13T18:29:23.229Z,99175.59
2023-04-13T18:34:34.395Z,99146.38
2023-04-13T18:39:39.639Z,99183.53
2023-04-13T18:44:43.164Z,99193.19
2023-04-13T18:49:47.978Z,99185.38
2023-04-13T18:54:51.358Z,99205.50
2023-04-13T18:59:55.161Z,99210.66
2023-04-13T19:05:00.073Z,99211.53
2023-04-13T19:10:03.682Z,99217.63
2023-04-13T19:15:08.094Z,99222.00
2023-04-13T19:20:13.472Z,99227.22
2023-04-13T19:25:16.973Z,99220.28
2023-04-13T19:30:21.018Z,99213.44
2023-04-13T19:35:26.513Z,99230.69
2023-04-13T19:40:30.138Z,99190.94
2023-04-13T19:45:33.579Z,99234.19
2023-04-13T19:50:38.464Z,99224.66
2023-04-13T19:55:41.682Z,99223.78
2023-04-13T20:00:47.642Z,99224.63
2023-04-13T20:05:52.837Z,99233.28
2023-04-13T20:10:57.980Z,99190.00
2023-04-13T20:16:03.254Z,99222.81
2023-04-13T20:21:08.420Z,99226.25
2023-04-13T20:26:11.894Z,99235.75
2023-04-13T20:31:15.852Z,99246.06
2023-04-13T20:36:21.814Z,99255.53
2023-04-13T20:41:27.271Z,99258.97
2023-04-13T20:46:34.634Z,99253.78
2023-04-13T20:51:40.136Z,99269.25
2023-04-13T20:56:44.103Z,99269.13
2023-04-13T21:01:49.092Z,99255.31
2023-04-13T21:06:54.265Z,99255.22
2023-04-13T21:11:58.138Z,99225.72
2023-04-13T21:17:01.726Z,99258.66
2023-04-13T21:22:06.738Z,99263.69
2023-04-13T21:27:10.054Z,99261.88
2023-04-13T21:32:14.060Z,99256.72
2023-04-13T21:37:19.206Z,99262.72
2023-04-13T21:42:22.845Z,99292.72
2023-04-13T21:47:26.445Z,99273.78
2023-04-13T21:52:31.432Z,99280.69
2023-04-13T21:57:34.767Z,99285.81
2023-04-13T22:02:38.412Z,99289.25
2023-04-13T22:07:43.657Z,99295.34
2023-04-13T22:12:48.062Z,99302.22
2023-04-13T22:17:51.722Z,99294.47
2023-04-13T22:22:56.592Z,99303.84
2023-04-13T22:28:00.085Z,99306.28
2023-04-13T22:33:03.671Z,99298.38
2023-04-13T22:38:08.706Z,99294.91
2023-04-13T22:43:11.817Z,99294.84
2023-04-13T22:48:15.515Z,99292.94
2023-04-13T22:53:20.419Z,99291.94
2023-04-13T22:58:23.900Z,99290.91
2023-04-13T23:03:27.878Z,99311.56
2023-04-13T23:08:33.055Z,99242.84
2023-04-13T23:13:36.972Z,99294.50
2023-04-13T23:18:40.494Z,99301.50
2023-04-13T23:23:45.594Z,99309.84
2023-04-13T23:28:49.105Z,99302.78
2023-04-13T23:33:53.918Z,99302.59
2023-04-13T23:39:00.161Z,99305.72
2023-04-13T23:44:03.881Z,99307.91
2023-04-13T23:49:07.682Z,99332.88
2023-04-13T23:54:12.782Z,99337.94
2023-04-13T23:59:16.213Z,99328.94
